Time;durP1;ratioP1;P1;durP2;ratioP2;P2;SDS_P1;SDS_P2;PMS_P1;PMS_P2;Temp;Humidity;BMP_temperature;BMP_pressure;BME280_temperature;BME280_humidity;BME280_pressure;Samples;Min_cycle;Max_cycle;Signal;HPM_P1;HPM_P2
2022/05/16 04:52:22;;;;;;;8.00;3.70;;;18.40;85.40;;;;;;5114842;27;20390;-82
2022/05/16 04:54:50;;;;;;;6.50;3.50;;;18.40;86.00;;;;;;5105281;28;20028;-81
2022/05/16 04:57:20;;;;;;;8.32;3.65;;;18.80;86.10;;;;;;5107253;28;20131;-82
2022/05/16 05:05:16;;;;;;;4.68;3.25;;;18.70;85.60;;;;;;5401222;22;20310;-81
2022/05/16 05:07:43;;;;;;;5.35;3.15;;;18.90;84.60;;;;;;5014920;28;20091;-78
2022/05/16 05:16:01;;;;;;;10.60;3.45;;;19.30;82.60;;;;;;5029799;28;20024;-79
2022/05/16 05:18:28;;;;;;;5.93;2.90;;;19.40;82.70;;;;;;5017339;28;20029;-79
2022/05/16 05:20:55;;;;;;;6.45;3.05;;;19.50;83.40;;;;;;5030156;28;20021;-79
2022/05/16 05:23:22;;;;;;;6.32;3.28;;;19.50;81.50;;;;;;5034801;28;20024;-79
2022/05/16 05:25:51;;;;;;;5.35;3.22;;;19.50;82.20;;;;;;5013178;28;20028;-79
2022/05/16 05:28:18;;;;;;;6.90;3.20;;;19.50;80.40;;;;;;5017256;28;20163;-79
2022/05/16 05:30:44;;;;;;;5.55;3.55;;;19.60;80.80;;;;;;5016574;28;20048;-79
2022/05/16 05:33:10;;;;;;;10.73;3.97;;;19.60;79.40;;;;;;5011879;28;20722;-79
2022/05/16 05:35:35;;;;;;;6.72;3.47;;;19.80;79.60;;;;;;5034393;28;20070;-79
2022/05/16 05:38:01;;;;;;;5.90;3.28;;;19.90;77.80;;;;;;5035092;28;20045;-74
2022/05/16 05:40:29;;;;;;;9.82;3.58;;;20.20;78.20;;;;;;5016013;28;20037;-73
2022/05/16 05:43:05;;;;;;;8.10;3.55;;;20.30;78.60;;;;;;5028830;28;20029;-73
2022/05/16 05:45:31;;;;;;;7.30;3.23;;;20.60;77.30;;;;;;5033167;28;20056;-74
2022/05/16 05:47:57;;;;;;;;;;;20.90;76.80;;;;;;5028429;28;20333;-74
2022/05/16 05:50:24;;;;;;;4.50;3.38;;;21.20;76.90;;;;;;5030778;28;19912;-72
2022/05/16 05:52:49;;;;;;;7.65;3.70;;;21.50;75.60;;;;;;5027102;28;20009;-72
2022/05/16 05:55:15;;;;;;;7.60;3.55;;;21.80;73.90;;;;;;5013969;28;20056;-72
2022/05/16 05:57:41;;;;;;;4.90;2.90;;;22.20;73.50;;;;;;5031583;28;20025;-72
2022/05/16 06:00:09;;;;;;;4.65;3.25;;;22.30;72.10;;;;;;5027526;28;20039;-72
2022/05/16 06:02:40;;;;;;;5.70;3.47;;;23.50;69.40;;;;;;5002904;28;20021;-72
2022/05/16 06:05:13;;;;;;;3.83;2.70;;;25.30;64.20;;;;;;4996264;28;20033;-72
2022/05/16 06:07:39;;;;;;;4.22;2.88;;;27.10;59.40;;;;;;5000215;28;20013;-73
2022/05/16 06:10:05;;;;;;;5.80;2.90;;;29.10;55.80;;;;;;5014240;28;20088;-73
2022/05/16 06:12:32;;;;;;;6.28;3.20;;;31.00;51.90;;;;;;5017726;28;20048;-72
2022/05/16 06:14:57;;;;;;;5.93;3.28;;;32.30;49.60;;;;;;5015311;28;20378;-73
2022/05/16 06:17:23;;;;;;;4.38;2.83;;;32.70;47.40;;;;;;5018659;28;20036;-73
2022/05/16 06:19:50;;;;;;;5.15;3.03;;;32.80;45.30;;;;;;4996735;28;20508;-73
2022/05/16 06:22:15;;;;;;;6.00;2.92;;;33.20;44.90;;;;;;5017664;28;20493;-72
2022/05/16 06:27:29;;;;;;;5.50;3.17;;;33.50;43.40;;;;;;5018149;28;20033;-73
2022/05/16 06:29:55;;;;;;;9.48;3.47;;;33.30;43.10;;;;;;4995347;28;20063;-73
2022/05/16 06:32:21;;;;;;;5.18;2.53;;;32.80;42.10;;;;;;5017243;28;20025;-73
2022/05/16 06:34:48;;;;;;;5.15;2.78;;;33.00;41.80;;;;;;4999684;28;20327;-72
2022/05/16 06:37:14;;;;;;;6.30;2.70;;;32.30;41.90;;;;;;4998474;28;20029;-73
2022/05/16 06:39:40;;;;;;;9.57;3.03;;;33.40;41.50;;;;;;5016839;28;20026;-73
2022/05/16 06:42:12;;;;;;;6.03;3.13;;;34.40;40.90;;;;;;5013386;28;20029;-72
2022/05/16 06:44:39;;;;;;;6.95;3.20;;;34.00;40.30;;;;;;5015139;28;20021;-73
2022/05/16 06:47:05;;;;;;;6.07;3.63;;;33.30;40.00;;;;;;5013999;28;20026;-72
2022/05/16 06:49:33;;;;;;;8.13;3.03;;;34.00;40.20;;;;;;5018729;28;20596;-73
2022/05/16 06:51:58;;;;;;;11.10;3.63;;;34.40;39.10;;;;;;5012441;28;20025;-73
2022/05/16 06:54:25;;;;;;;7.22;3.60;;;32.50;39.10;;;;;;4999656;28;20663;-73
2022/05/16 06:56:54;;;;;;;5.47;2.90;;;31.90;40.70;;;;;;5014307;28;20163;-73
2022/05/16 06:59:21;;;;;;;5.57;2.58;;;31.80;40.20;;;;;;5017905;28;20028;-72
2022/05/16 07:01:47;;;;;;;5.20;3.13;;;32.80;40.30;;;;;;5015513;28;20558;-72
2022/05/16 07:04:13;;;;;;;6.50;3.17;;;32.00;40.40;;;;;;5012934;28;20040;-73
2022/05/16 07:06:41;;;;;;;6.68;3.25;;;33.00;39.60;;;;;;5016838;28;20025;-73
2022/05/16 07:09:06;;;;;;;8.27;2.67;;;32.60;39.80;;;;;;4993335;28;20064;-73
2022/05/16 07:11:33;;;;;;;5.63;2.95;;;33.10;39.50;;;;;;5000274;28;20124;-73
2022/05/16 07:14:00;;;;;;;5.25;2.70;;;33.30;39.00;;;;;;5011748;28;20144;-74
2022/05/16 07:16:26;;;;;;;7.40;3.08;;;32.70;39.40;;;;;;5017653;28;20033;-72
2022/05/16 07:18:52;;;;;;;8.55;3.10;;;31.70;40.20;;;;;;5014016;28;20017;-73
2022/05/16 07:21:18;;;;;;;5.88;2.78;;;31.90;39.90;;;;;;5015902;28;20034;-73
2022/05/16 07:23:45;;;;;;;4.53;2.70;;;30.60;39.10;;;;;;4999856;28;20594;-73
2022/05/16 07:28:56;;;;;;;6.72;3.20;;;32.40;40.40;;;;;;5011755;28;20051;-73
2022/05/16 07:31:22;;;;;;;5.25;3.10;;;32.10;39.70;;;;;;5014902;28;20044;-74
2022/05/16 07:33:49;;;;;;;5.55;2.88;;;32.20;39.30;;;;;;5017209;28;20017;-73
2022/05/16 07:36:15;;;;;;;5.13;2.92;;;31.10;40.20;;;;;;5011960;28;20030;-72
2022/05/16 07:38:40;;;;;;;6.57;2.97;;;30.90;40.70;;;;;;5016909;28;20040;-73
2022/05/16 07:41:08;;;;;;;4.65;2.95;;;32.10;40.40;;;;;;4994784;28;20645;-72
2022/05/16 07:43:35;;;;;;;6.93;2.50;;;31.60;39.50;;;;;;4998601;28;20047;-74
2022/05/16 07:46:03;;;;;;;5.15;3.22;;;32.60;39.50;;;;;;5012825;28;20017;-72
2022/05/16 07:48:31;;;;;;;7.90;2.55;;;32.00;39.50;;;;;;4997931;28;20113;-72
2022/05/16 07:50:57;;;;;;;4.93;2.33;;;32.10;39.20;;;;;;4994507;28;21063;-73
2022/05/16 07:53:23;;;;;;;7.22;2.85;;;32.60;39.50;;;;;;4996793;28;20030;-72
2022/05/16 07:55:54;;;;;;;6.10;2.72;;;31.70;40.50;;;;;;5017177;28;20441;-72
2022/05/16 07:58:21;;;;;;;6.97;3.40;;;32.70;39.50;;;;;;5016334;28;20106;-72
2022/05/16 08:00:50;;;;;;;4.32;2.55;;;31.50;39.40;;;;;;5015934;28;20028;-74
2022/05/16 08:03:18;;;;;;;7.07;2.72;;;30.20;40.80;;;;;;4994114;28;20025;-74
2022/05/16 08:05:44;;;;;;;7.97;2.60;;;31.40;41.30;;;;;;5015319;28;20025;-73
2022/05/16 08:10:58;;;;;;;6.78;3.20;;;31.10;39.40;;;;;;5010351;28;20037;-75
2022/05/16 08:13:24;;;;;;;7.97;2.80;;;30.30;40.70;;;;;;5013969;28;20029;-74
2022/05/16 08:15:50;;;;;;;5.95;2.63;;;31.00;40.70;;;;;;5014731;28;20052;-73
2022/05/16 08:18:16;;;;;;;9.50;2.95;;;32.20;40.60;;;;;;5011206;28;20200;-72
2022/05/16 08:20:44;;;;;;;5.85;2.72;;;31.80;39.70;;;;;;5014857;28;20137;-73
2022/05/16 08:23:17;;;;;;;4.65;2.33;;;33.00;39.30;;;;;;4993708;28;20017;-72
2022/05/16 08:25:44;;;;;;;7.45;2.70;;;33.80;38.90;;;;;;5015393;28;20017;-74
2022/05/16 08:28:11;;;;;;;8.88;2.58;;;33.90;38.70;;;;;;5011430;28;20021;-74
2022/05/16 08:30:38;;;;;;;9.43;3.05;;;33.70;38.50;;;;;;4997593;28;20079;-75
2022/05/16 08:33:04;;;;;;;6.35;2.80;;;33.50;38.30;;;;;;5012303;28;20049;-73
2022/05/16 08:35:30;;;;;;;9.05;3.05;;;32.90;38.90;;;;;;5016172;28;20045;-72
2022/05/16 08:41:03;;;;;;;9.95;2.85;;;33.80;38.50;;;;;;5014640;28;20036;-73
2022/05/16 08:43:47;;;;;;;5.40;3.15;;;32.00;38.60;;;;;;4997554;28;20044;-73
2022/05/16 08:46:36;;;;;;;4.88;2.60;;;33.00;38.50;;;;;;5012504;28;20029;-73
2022/05/16 08:49:29;;;;;;;7.72;2.80;;;33.50;38.40;;;;;;4993585;28;20458;-73
2022/05/16 08:52:31;;;;;;;5.60;3.10;;;33.20;38.80;;;;;;5013503;28;20898;-73
2022/05/16 08:55:15;;;;;;;7.10;2.78;;;33.10;38.00;;;;;;4994634;28;20159;-73
2022/05/16 08:57:50;;;;;;;6.43;2.97;;;34.00;38.60;;;;;;5013119;28;20018;-73
2022/05/16 09:00:26;;;;;;;6.18;2.67;;;33.80;38.20;;;;;;4992482;28;20055;-73
2022/05/16 09:02:54;;;;;;;4.43;2.67;;;33.40;38.80;;;;;;4997795;28;20026;-73
2022/05/16 09:05:35;;;;;;;7.35;2.97;;;33.00;38.60;;;;;;5010229;28;20058;-73
2022/05/16 09:08:08;;;;;;;6.40;2.60;;;33.20;38.60;;;;;;5011173;28;20048;-73
2022/05/16 09:10:49;;;;;;;7.50;2.55;;;32.00;38.70;;;;;;5011161;28;20021;-74
2022/05/16 09:13:40;;;;;;;6.03;3.22;;;31.80;39.70;;;;;;5010636;28;20056;-74
2022/05/16 09:16:27;;;;;;;4.82;2.83;;;31.00;40.50;;;;;;5007226;28;20064;-72
2022/05/16 09:18:55;;;;;;;;;;;31.40;40.20;;;;;;4998339;28;20021;-72
2022/05/16 09:21:55;;;;;;;11.02;2.70;;;31.30;38.60;;;;;;4994290;28;19905;-72
2022/05/16 09:24:45;;;;;;;5.20;2.55;;;30.90;40.00;;;;;;5011066;28;20029;-74
2022/05/16 09:28:34;;;;;;;5.43;2.10;;;32.30;39.20;;;;;;4997695;28;20045;-75
2022/05/16 09:30:05;;;;;;;5.13;2.35;;;32.40;38.20;;;;;;5007204;28;20155;-74
2022/05/16 09:32:35;;;;;;;6.40;2.35;;;32.10;37.30;;;;;;5014500;28;20021;-74
2022/05/16 09:35:01;;;;;;;6.32;2.30;;;31.70;37.20;;;;;;5011203;28;20028;-75
2022/05/16 09:37:28;;;;;;;4.80;2.45;;;31.80;39.10;;;;;;4998184;28;20405;-75
2022/05/16 09:39:55;;;;;;;8.55;2.38;;;32.80;38.10;;;;;;5017265;28;20145;-75
2022/05/16 09:42:32;;;;;;;4.90;2.70;;;33.80;37.40;;;;;;5014578;28;20026;-74
2022/05/16 09:45:03;;;;;;;6.85;2.25;;;32.40;37.70;;;;;;5015698;28;20030;-75
2022/05/16 09:47:29;;;;;;;5.68;2.40;;;30.80;38.40;;;;;;5000026;28;20052;-74
2022/05/16 09:50:16;;;;;;;7.72;2.60;;;30.80;39.50;;;;;;4999465;28;20683;-74
2022/05/16 09:52:46;;;;;;;;;;;30.90;40.20;;;;;;5017585;28;20339;-71
2022/05/16 09:55:27;;;;;;;4.55;2.70;;;31.40;40.40;;;;;;5013112;28;19916;-71
2022/05/16 09:58:12;;;;;;;7.25;2.80;;;30.50;40.70;;;;;;5017453;28;20034;-72
2022/05/16 10:01:00;;;;;;;4.40;2.90;;;29.90;40.60;;;;;;5014570;28;20143;-72
2022/05/16 10:03:30;;;;;;;6.30;2.33;;;30.60;41.50;;;;;;4993776;28;20107;-72
2022/05/16 10:06:00;;;;;;;5.95;2.55;;;31.00;40.60;;;;;;5015608;28;20029;-73
2022/05/16 10:08:36;;;;;;;4.18;2.40;;;31.00;40.90;;;;;;4993612;28;20200;-72
2022/05/16 10:11:11;;;;;;;5.00;2.97;;;31.90;40.30;;;;;;4999491;28;20033;-72
2022/05/16 10:13:36;;;;;;;4.38;2.90;;;31.60;40.20;;;;;;4994255;28;20025;-71
2022/05/16 10:16:06;;;;;;;6.82;2.83;;;30.70;41.10;;;;;;5013677;28;20461;-72
2022/05/16 10:18:40;;;;;;;5.80;2.72;;;30.60;41.60;;;;;;4999886;28;20665;-72
2022/05/16 10:21:23;;;;;;;5.45;2.70;;;31.30;41.40;;;;;;4994691;28;20034;-74
2022/05/16 10:23:51;;;;;;;9.20;2.80;;;31.30;40.90;;;;;;5012474;28;20028;-72
2022/05/16 10:26:24;;;;;;;5.53;2.83;;;31.50;41.20;;;;;;5018553;28;20025;-72
2022/05/16 10:29:06;;;;;;;8.10;3.35;;;30.60;41.80;;;;;;4996389;28;20640;-73
2022/05/16 10:34:38;;;;;;;7.07;2.78;;;31.10;41.20;;;;;;5018256;28;20052;-74
2022/05/16 10:37:06;;;;;;;5.97;3.00;;;31.90;41.20;;;;;;4996761;28;20026;-73
2022/05/16 10:39:35;;;;;;;7.18;3.00;;;32.10;41.30;;;;;;4996372;28;20017;-72
2022/05/16 10:42:06;;;;;;;7.07;3.10;;;32.10;41.10;;;;;;5011063;28;20021;-76
2022/05/16 10:44:40;;;;;;;9.30;3.20;;;32.10;41.20;;;;;;5017759;28;20025;-75
2022/05/16 10:47:26;;;;;;;5.50;2.80;;;31.80;41.30;;;;;;5014654;28;20026;-75
2022/05/16 10:50:31;;;;;;;8.90;3.13;;;30.70;42.30;;;;;;4995088;28;20544;-74
2022/05/16 10:53:12;;;;;;;5.90;2.83;;;30.40;42.90;;;;;;5011435;28;20269;-73
2022/05/16 10:56:11;;;;;;;8.02;2.75;;;30.00;42.60;;;;;;5014814;28;20056;-74
2022/05/16 10:58:48;;;;;;;6.30;2.80;;;29.10;44.10;;;;;;4991964;28;20374;-73
2022/05/16 11:01:42;;;;;;;8.02;3.30;;;29.10;45.50;;;;;;5014413;28;20060;-74
2022/05/16 11:04:17;;;;;;;8.15;3.28;;;29.40;44.50;;;;;;4986090;28;20049;-73
2022/05/16 11:07:13;;;;;;;7.97;3.08;;;29.40;44.70;;;;;;5012717;28;20018;-74
2022/05/16 11:09:40;;;;;;;7.45;2.70;;;28.90;45.30;;;;;;5014038;28;20024;-74
2022/05/16 11:12:06;;;;;;;3.88;2.97;;;28.60;45.80;;;;;;4996659;28;20057;-74
2022/05/16 11:14:53;;;;;;;6.25;2.90;;;28.20;46.70;;;;;;4995198;28;20041;-74
2022/05/16 11:17:30;;;;;;;11.05;3.38;;;28.10;46.10;;;;;;4995654;28;20041;-74
2022/05/16 11:20:19;;;;;;;6.35;3.00;;;28.10;46.20;;;;;;5017180;28;20018;-74
2022/05/16 11:22:54;;;;;;;6.22;2.80;;;28.00;45.90;;;;;;5015084;28;20013;-75
2022/05/16 11:25:51;;;;;;;7.35;2.88;;;28.20;46.10;;;;;;5012597;28;20084;-74
2022/05/16 11:28:27;;;;;;;9.23;3.05;;;28.60;45.70;;;;;;4995763;28;20026;-75
2022/05/16 11:30:59;;;;;;;5.38;2.90;;;28.70;45.40;;;;;;5016453;28;20026;-74
2022/05/16 11:33:47;;;;;;;7.70;3.30;;;28.40;46.40;;;;;;4994955;28;20125;-74
2022/05/16 11:36:49;;;;;;;6.80;2.97;;;28.60;46.20;;;;;;5013945;28;20811;-73
2022/05/16 11:39:31;;;;;;;9.55;3.70;;;28.90;45.90;;;;;;4993870;28;20370;-74
2022/05/16 11:42:38;;;;;;;4.53;3.03;;;28.80;45.40;;;;;;5014052;28;20033;-75
2022/05/16 11:45:27;;;;;;;4.88;3.22;;;28.10;46.30;;;;;;5015992;28;20058;-73
2022/05/16 11:48:12;;;;;;;7.75;3.25;;;27.60;46.50;;;;;;4987475;28;20041;-74
2022/05/16 11:50:50;;;;;;;4.82;3.05;;;27.80;47.00;;;;;;5007985;28;20043;-74
2022/05/16 11:53:53;;;;;;;6.95;2.95;;;28.00;47.40;;;;;;5010930;28;20029;-74
2022/05/16 12:02:26;;;;;;;8.07;3.17;;;27.80;46.80;;;;;;5012685;28;20121;-75
2022/05/16 12:05:09;;;;;;;8.70;3.25;;;27.70;47.20;;;;;;5015658;28;20159;-75
2022/05/16 12:07:35;;;;;;;11.23;3.85;;;28.00;47.70;;;;;;5008783;28;20029;-74
2022/05/16 12:10:22;;;;;;;6.18;2.80;;;28.40;46.70;;;;;;4998160;28;20021;-74
2022/05/16 12:13:17;;;;;;;4.95;3.03;;;28.70;46.40;;;;;;5013929;28;20187;-74
2022/05/16 12:15:46;;;;;;;6.07;3.10;;;28.20;46.90;;;;;;5016368;28;20029;-74
2022/05/16 12:18:48;;;;;;;6.85;3.35;;;27.90;46.80;;;;;;5016647;28;20017;-73
2022/05/16 12:21:18;;;;;;;5.70;2.90;;;28.10;46.80;;;;;;4962631;28;20041;-73
2022/05/16 12:23:44;;;;;;;6.13;2.90;;;27.50;46.80;;;;;;5013670;28;20017;-74
2022/05/16 12:26:10;;;;;;;;;;;27.70;47.50;;;;;;5016090;28;20021;-73
2022/05/16 12:28:38;;;;;;;6.30;3.72;;;27.80;47.10;;;;;;4995131;28;20249;-74
2022/05/16 12:31:09;;;;;;;6.60;3.40;;;27.70;46.80;;;;;;5016297;28;20655;-74
2022/05/16 12:33:50;;;;;;;16.75;4.50;;;27.30;46.80;;;;;;4992084;28;20647;-74
2022/05/16 12:36:19;;;;;;;7.32;3.55;;;27.70;47.40;;;;;;5011842;28;20129;-74
2022/05/16 12:39:02;;;;;;;8.68;3.20;;;28.00;46.90;;;;;;4997597;28;20464;-75
2022/05/16 12:41:52;;;;;;;8.65;3.42;;;28.30;46.50;;;;;;4992989;28;20034;-73
2022/05/16 12:44:30;;;;;;;5.63;3.15;;;28.40;47.30;;;;;;4993614;28;20025;-74
2022/05/16 12:47:14;;;;;;;7.25;2.80;;;27.70;46.50;;;;;;5015837;28;20698;-73
2022/05/16 12:49:53;;;;;;;9.40;3.67;;;27.60;47.20;;;;;;4991322;28;20679;-74
2022/05/16 12:52:30;;;;;;;8.15;3.33;;;27.70;46.80;;;;;;4992197;28;20021;-75
2022/05/16 12:55:23;;;;;;;6.15;3.25;;;28.00;46.60;;;;;;4996885;28;20027;-76
2022/05/16 12:57:53;;;;;;;10.52;3.58;;;28.30;47.00;;;;;;5009183;28;20037;-76
2022/05/16 13:00:24;;;;;;;6.05;3.20;;;28.60;46.60;;;;;;5015596;28;20552;-76
2022/05/16 13:03:28;;;;;;;5.97;2.95;;;28.80;46.40;;;;;;5010239;28;20014;-76
2022/05/16 13:06:06;;;;;;;6.30;3.13;;;28.80;45.50;;;;;;4993092;28;20025;-76
2022/05/16 13:08:44;;;;;;;6.35;2.88;;;28.80;45.90;;;;;;5009858;28;20053;-76
2022/05/16 13:11:12;;;;;;;5.78;3.05;;;28.90;45.90;;;;;;4993569;28;20029;-76
2022/05/16 13:14:12;;;;;;;7.53;3.17;;;28.90;45.70;;;;;;5014454;28;20013;-77
2022/05/16 13:16:48;;;;;;;8.07;3.63;;;28.90;46.50;;;;;;5016175;28;20025;-76
2022/05/16 13:19:17;;;;;;;7.82;2.97;;;28.20;46.60;;;;;;5015638;28;20025;-76
2022/05/16 13:21:50;;;;;;;6.47;2.90;;;27.70;47.90;;;;;;5019002;28;20017;-76
2022/05/16 13:24:18;;;;;;;7.15;2.90;;;27.00;47.90;;;;;;5015274;28;20036;-76
2022/05/16 13:29:35;;;;;;;5.30;3.10;;;27.10;48.20;;;;;;5020492;28;20032;-74
2022/05/16 13:32:10;;;;;;;5.78;2.80;;;27.40;48.30;;;;;;5015034;28;20037;-74
2022/05/16 13:34:46;;;;;;;7.30;3.00;;;27.40;49.20;;;;;;5019703;28;20021;-74
2022/05/16 13:37:23;;;;;;;6.03;3.13;;;27.50;50.00;;;;;;5012535;28;20400;-74
2022/05/16 13:40:13;;;;;;;5.80;3.28;;;27.60;47.90;;;;;;5017983;28;20022;-74
2022/05/16 13:42:41;;;;;;;8.57;3.30;;;27.60;48.40;;;;;;5014286;28;20021;-73
2022/05/16 13:45:08;;;;;;;5.97;2.85;;;27.80;47.80;;;;;;5016382;28;20049;-75
2022/05/16 13:47:42;;;;;;;5.18;3.88;;;27.80;47.70;;;;;;5020781;28;20071;-75
2022/05/16 13:50:27;;;;;;;7.53;3.55;;;27.60;47.70;;;;;;5014725;28;20712;-74
2022/05/16 13:52:53;;;;;;;7.85;3.03;;;27.70;48.30;;;;;;5017158;28;20021;-74
2022/05/16 13:55:20;;;;;;;;;;;27.90;48.00;;;;;;5015625;28;20366;-74
2022/05/16 13:57:48;;;;;;;8.32;3.75;;;27.70;47.80;;;;;;5019788;28;19951;-75
2022/05/16 14:00:17;;;;;;;8.00;3.40;;;27.60;48.00;;;;;;4997101;28;20034;-75
2022/05/16 14:02:53;;;;;;;7.60;3.30;;;27.60;47.90;;;;;;5001849;28;20529;-75
2022/05/16 14:05:40;;;;;;;5.10;3.25;;;27.70;48.00;;;;;;4997155;28;20041;-77
2022/05/16 14:08:18;;;;;;;;;;;27.70;48.20;;;;;;5012982;28;20044;-76
2022/05/16 14:10:45;;;;;;;5.13;3.13;;;27.20;48.40;;;;;;4998877;28;19948;-78
2022/05/16 14:13:18;;;;;;;7.22;3.22;;;27.20;49.10;;;;;;5014123;28;20025;-76
2022/05/16 14:16:15;;;;;;;6.65;3.40;;;27.00;49.30;;;;;;5018942;28;20041;-76
2022/05/16 14:18:50;;;;;;;17.80;3.65;;;27.10;49.10;;;;;;5005084;28;20037;-74
2022/05/16 14:21:26;;;;;;;5.80;3.30;;;27.00;48.70;;;;;;5018305;28;20159;-76
2022/05/16 14:23:58;;;;;;;7.03;2.80;;;27.10;48.80;;;;;;4996299;28;20025;-76
2022/05/16 14:26:39;;;;;;;6.45;3.38;;;27.20;49.40;;;;;;5018605;28;20112;-77
2022/05/16 14:29:30;;;;;;;3.53;2.78;;;27.10;48.90;;;;;;4998021;28;20072;-76
2022/05/16 14:31:59;;;;;;;4.60;3.00;;;27.10;49.20;;;;;;5018429;28;20029;-76
2022/05/16 14:34:36;;;;;;;9.15;3.72;;;27.30;49.80;;;;;;4998030;28;20259;-75
2022/05/16 14:37:04;;;;;;;5.00;2.97;;;27.40;48.80;;;;;;4997648;28;20021;-76
2022/05/16 14:39:32;;;;;;;5.43;2.92;;;27.30;48.70;;;;;;5019322;28;20024;-75
2022/05/16 14:42:06;;;;;;;6.72;3.40;;;27.30;48.80;;;;;;5018561;28;20034;-76
2022/05/16 14:45:03;;;;;;;5.97;3.10;;;27.30;48.60;;;;;;5001219;28;20026;-76
2022/05/16 14:47:40;;;;;;;6.05;3.22;;;27.20;49.00;;;;;;5018121;28;20186;-75
2022/05/16 14:50:11;;;;;;;6.03;3.20;;;27.20;48.70;;;;;;5011603;28;20508;-76
2022/05/16 14:52:52;;;;;;;4.80;3.15;;;27.20;48.80;;;;;;4997460;28;20026;-76
2022/05/16 14:55:28;;;;;;;6.70;3.35;;;27.10;49.10;;;;;;5012255;28;20025;-75
2022/05/16 14:58:00;;;;;;;3.72;3.08;;;27.10;49.10;;;;;;5000182;28;20128;-76
2022/05/16 15:06:01;;;;;;;6.47;4.05;;;27.10;49.20;;;;;;5015818;28;20382;-76
2022/05/16 15:08:32;;;;;;;4.55;2.85;;;27.10;50.00;;;;;;5017669;28;20046;-76
2022/05/16 15:10:59;;;;;;;9.52;3.45;;;27.20;49.00;;;;;;4999296;28;20029;-76
2022/05/16 15:13:27;;;;;;;5.72;3.08;;;27.10;49.30;;;;;;4996801;28;21378;-75
2022/05/16 15:15:54;;;;;;;5.13;3.38;;;27.20;49.20;;;;;;4995651;28;20493;-76
2022/05/16 15:18:21;;;;;;;6.18;4.07;;;27.20;49.70;;;;;;5017558;28;20033;-76
2022/05/16 15:20:48;;;;;;;5.28;3.13;;;27.10;49.60;;;;;;5012708;28;20017;-76
2022/05/16 15:23:15;;;;;;;8.50;3.55;;;27.00;48.90;;;;;;5000536;28;20029;-77
2022/05/16 15:25:42;;;;;;;7.00;3.25;;;26.90;49.50;;;;;;5014064;28;20032;-76
2022/05/16 15:28:10;;;;;;;6.68;3.28;;;26.90;49.10;;;;;;5017798;28;20132;-76
2022/05/16 15:30:41;;;;;;;7.88;3.10;;;26.90;48.80;;;;;;4996135;28;20102;-77
2022/05/16 15:33:09;;;;;;;7.97;3.47;;;27.00;48.60;;;;;;4997114;28;20489;-76
2022/05/16 15:35:38;;;;;;;7.68;3.60;;;27.10;49.00;;;;;;5010207;28;20026;-77
2022/05/16 15:38:06;;;;;;;9.75;3.45;;;27.10;49.20;;;;;;5015557;28;20017;-76
2022/05/16 15:40:42;;;;;;;6.45;3.20;;;27.10;49.10;;;;;;5011509;28;20021;-76
2022/05/16 15:43:11;;;;;;;7.15;3.28;;;27.00;48.70;;;;;;5014476;28;20029;-80
2022/05/16 15:45:42;;;;;;;5.22;3.00;;;26.90;48.60;;;;;;4995843;28;20021;-83
2022/05/16 15:48:12;;;;;;;7.93;4.63;;;26.80;49.40;;;;;;5015356;28;20029;-80
2022/05/16 15:50:40;;;;;;;7.22;3.42;;;26.60;49.50;;;;;;4992001;28;20095;-78
2022/05/16 16:08:57;;;;;;;7.18;3.70;;;26.70;50.50;;;;;;5013636;28;20661;-75
2022/05/16 16:11:29;;;;;;;7.43;3.35;;;26.60;50.40;;;;;;5016034;28;20781;-76
2022/05/16 16:13:57;;;;;;;3.60;2.75;;;26.50;51.00;;;;;;5012141;28;20095;-75
2022/05/16 16:16:25;;;;;;;7.60;2.97;;;26.50;51.00;;;;;;5016636;28;20061;-75
2022/05/16 16:18:52;;;;;;;5.90;3.92;;;26.60;52.80;;;;;;4993928;28;20039;-73
2022/05/16 16:21:20;;;;;;;6.28;3.67;;;26.70;51.70;;;;;;5015880;28;20025;-73
2022/05/16 16:23:47;;;;;;;5.40;3.28;;;26.70;51.60;;;;;;4994729;28;20022;-73
2022/05/16 16:26:15;;;;;;;6.35;3.35;;;26.70;53.40;;;;;;5012446;28;20500;-79
2022/05/16 16:28:43;;;;;;;5.95;3.38;;;26.70;54.20;;;;;;5017062;28;20394;-82
2022/05/16 16:31:18;;;;;;;4.38;3.30;;;26.60;54.40;;;;;;4995544;28;20028;-82
2022/05/16 16:33:46;;;;;;;5.35;3.63;;;26.60;54.60;;;;;;4997310;28;20478;-83
2022/05/16 16:36:16;;;;;;;9.00;3.33;;;26.50;55.10;;;;;;4994991;28;20421;-82
2022/05/16 16:38:42;;;;;;;7.65;3.33;;;26.40;56.10;;;;;;4998432;28;20195;-80
2022/05/16 16:41:13;;;;;;;8.30;4.00;;;26.40;55.90;;;;;;4993928;28;20579;-79
2022/05/16 16:43:47;;;;;;;7.00;4.00;;;26.30;56.30;;;;;;5013764;28;20029;-80
2022/05/16 16:46:15;;;;;;;4.68;3.80;;;26.30;56.70;;;;;;4992085;28;20037;-80
2022/05/16 16:48:43;;;;;;;8.05;3.60;;;26.10;57.20;;;;;;4998312;28;20423;-81
2022/05/16 16:59:43;;;;;;;5.93;3.60;;;25.90;59.30;;;;;;5017119;28;20036;-82
2022/05/16 17:02:17;;;;;;;7.00;4.28;;;25.90;59.80;;;;;;4991242;28;20486;-81
2022/05/16 17:04:59;;;;;;;5.72;4.38;;;25.80;60.30;;;;;;4996337;28;20037;-80
2022/05/16 17:07:29;;;;;;;6.90;3.90;;;25.70;60.70;;;;;;5013421;28;20828;-78
2022/05/16 17:10:08;;;;;;;5.85;3.40;;;25.60;60.40;;;;;;4997411;28;20041;-73
2022/05/16 17:12:37;;;;;;;5.70;4.10;;;25.60;61.10;;;;;;4999326;28;20021;-79
2022/05/16 17:15:05;;;;;;;10.98;4.63;;;25.50;61.20;;;;;;4995210;28;20025;-74
2022/05/16 17:17:32;;;;;;;12.07;3.97;;;25.40;61.70;;;;;;5016663;28;20083;-75
2022/05/16 17:20:00;;;;;;;6.78;3.42;;;25.50;61.80;;;;;;4998035;28;20125;-79
2022/05/16 17:22:26;;;;;;;7.45;4.60;;;25.50;61.80;;;;;;4995261;28;20036;-78
2022/05/16 17:25:01;;;;;;;9.43;3.70;;;25.40;61.80;;;;;;5000209;28;20120;-92
2022/05/16 17:27:28;;;;;;;4.13;3.28;;;25.40;62.10;;;;;;4999876;28;20026;-77
2022/05/16 17:29:58;;;;;;;5.93;3.70;;;25.40;62.10;;;;;;5018844;28;20022;-78
2022/05/16 17:32:26;;;;;;;11.30;4.13;;;25.40;62.90;;;;;;5013445;28;20025;-86
2022/05/16 17:34:52;;;;;;;10.00;4.25;;;25.40;63.40;;;;;;4999843;28;20563;-77
2022/05/16 17:37:19;;;;;;;7.22;3.42;;;25.40;63.90;;;;;;5012634;28;20026;-77
2022/05/16 17:39:45;;;;;;;8.80;4.10;;;25.40;64.50;;;;;;5014785;28;20474;-76
2022/05/16 17:42:12;;;;;;;5.38;3.60;;;25.40;64.00;;;;;;5012133;28;20021;-75
2022/05/16 17:44:40;;;;;;;5.25;3.45;;;25.30;62.90;;;;;;5016203;28;20482;-75
2022/05/16 17:47:10;;;;;;;6.05;3.70;;;25.20;63.80;;;;;;4994854;28;20033;-78
2022/05/16 17:49:45;;;;;;;6.07;3.20;;;25.00;61.30;;;;;;4998780;28;20071;-77
2022/05/16 17:52:15;;;;;;;4.75;3.38;;;24.90;61.80;;;;;;4991316;28;20524;-80
2022/05/16 17:54:47;;;;;;;7.88;3.72;;;24.80;61.60;;;;;;4998545;28;20034;-78
2022/05/16 17:57:19;;;;;;;5.15;3.80;;;24.70;63.20;;;;;;4994203;28;20045;-78
2022/05/16 17:59:45;;;;;;;5.45;3.78;;;24.60;63.50;;;;;;5018189;28;20067;-78
2022/05/16 18:02:25;;;;;;;7.95;3.92;;;24.60;63.90;;;;;;4997482;28;20087;-78
2022/05/16 18:04:52;;;;;;;6.07;3.58;;;24.50;64.60;;;;;;5015317;28;20110;-76
2022/05/16 18:07:20;;;;;;;6.90;3.65;;;24.50;64.60;;;;;;4996612;28;20375;-77
2022/05/16 18:09:47;;;;;;;6.57;3.78;;;24.50;64.80;;;;;;5003303;28;20021;-76
2022/05/16 18:15:01;;;;;;;6.72;3.70;;;24.40;64.60;;;;;;5022384;28;20496;-76
2022/05/16 18:17:29;;;;;;;6.88;3.53;;;24.30;64.40;;;;;;5018496;28;20029;-76
2022/05/16 18:19:55;;;;;;;6.45;3.58;;;24.20;64.50;;;;;;5018330;28;20113;-77
2022/05/16 18:22:27;;;;;;;7.32;3.80;;;24.10;64.90;;;;;;5016247;28;20109;-76
2022/05/16 18:24:53;;;;;;;6.18;3.40;;;24.10;64.70;;;;;;5003472;28;20606;-76
2022/05/16 18:27:29;;;;;;;6.63;3.70;;;24.00;65.00;;;;;;5017330;28;20134;-76
2022/05/16 18:29:56;;;;;;;6.72;3.30;;;23.90;65.40;;;;;;5003119;28;20037;-77
2022/05/16 18:32:25;;;;;;;7.78;3.67;;;23.80;65.40;;;;;;5016920;28;20033;-76
2022/05/16 18:34:53;;;;;;;7.22;3.85;;;23.70;66.20;;;;;;5002379;28;20021;-76
2022/05/16 18:37:19;;;;;;;6.80;3.55;;;23.70;66.50;;;;;;5016816;28;20104;-76
2022/05/16 18:39:46;;;;;;;8.32;3.33;;;23.60;66.10;;;;;;5002439;28;20570;-79
2022/05/16 18:50:55;;;;;;;6.35;4.00;;;23.30;67.10;;;;;;5022603;28;20036;-82
